Time;durP1;ratioP1;P1;durP2;ratioP2;P2;SDS_P1;SDS_P2;PMS_P1;PMS_P2;Temp;Humidity;BMP_temperature;BMP_pressure;BME280_temperature;BME280_humidity;BME280_pressure;Samples;Min_cycle;Max_cycle;Signal;HPM_P1;HPM_P2
2024/03/03 00:01:10;;;;;;;39.80;18.90;;;;;;;;;;7319697;19;20439;-53
2024/03/03 00:03:42;;;;;;;44.67;19.97;;;;;;;;;;7333225;19;20427;-54
2024/03/03 00:06:12;;;;;;;35.00;18.30;;;;;;;;;;7316447;19;20431;-55
2024/03/03 00:08:41;;;;;;;42.70;18.47;;;;;;;;;;7340784;19;20450;-54
2024/03/03 00:11:10;;;;;;;39.97;19.40;;;;;;;;;;7319372;19;20430;-54
2024/03/03 00:13:40;;;;;;;36.47;19.10;;;;;;;;;;7340586;19;20920;-56
2024/03/03 00:16:10;;;;;;;39.90;18.70;;;;;;;;;;7317202;19;20447;-57
2024/03/03 00:18:39;;;;;;;38.90;17.37;;;;;;;;;;7339912;19;22259;-51
2024/03/03 00:21:16;;;;;;;42.53;18.57;;;;;;;;;;7318403;19;20419;-57
2024/03/03 00:23:46;;;;;;;38.60;18.13;;;;;;;;;;7341319;19;20455;-52
2024/03/03 00:26:15;;;;;;;38.50;18.00;;;;;;;;;;7317266;19;20946;-52
2024/03/03 00:28:44;;;;;;;44.30;19.10;;;;;;;;;;7340227;19;20437;-53
2024/03/03 00:31:16;;;;;;;36.47;18.03;;;;;;;;;;7318139;19;20500;-57
2024/03/03 00:33:46;;;;;;;42.23;18.87;;;;;;;;;;7340509;19;20438;-55
2024/03/03 00:36:17;;;;;;;45.30;19.10;;;;;;;;;;7317396;19;20377;-55
2024/03/03 00:38:47;;;;;;;38.43;19.27;;;;;;;;;;7341221;19;20434;-55
2024/03/03 00:41:16;;;;;;;40.07;19.33;;;;;;;;;;7318105;19;20515;-55
2024/03/03 00:43:46;;;;;;;43.93;18.93;;;;;;;;;;7340320;19;20427;-55
2024/03/03 00:46:15;;;;;;;43.17;19.67;;;;;;;;;;7316781;19;20416;-56
2024/03/03 00:48:45;;;;;;;45.23;19.13;;;;;;;;;;7340064;19;20977;-55
2024/03/03 00:51:14;;;;;;;38.80;18.30;;;;;;;;;;7317935;19;20441;-56
2024/03/03 00:53:46;;;;;;;43.87;20.53;;;;;;;;;;7340195;19;20434;-55
2024/03/03 00:56:16;;;;;;;42.47;19.03;;;;;;;;;;7315238;19;20428;-58
2024/03/03 00:58:45;;;;;;;39.50;18.90;;;;;;;;;;7339156;19;20507;-54
2024/03/03 01:01:15;;;;;;;43.27;19.77;;;;;;;;;;7319381;19;20760;-55
2024/03/03 01:03:44;;;;;;;45.00;19.57;;;;;;;;;;7345818;19;20518;-55
2024/03/03 01:06:14;;;;;;;46.87;20.20;;;;;;;;;;7323204;19;20434;-56
2024/03/03 01:08:43;;;;;;;39.87;19.63;;;;;;;;;;7346358;19;20451;-52
2024/03/03 01:11:15;;;;;;;40.70;20.03;;;;;;;;;;7325151;19;21096;-54
2024/03/03 01:13:45;;;;;;;38.37;19.13;;;;;;;;;;7346468;19;20427;-56
2024/03/03 01:16:14;;;;;;;44.37;19.33;;;;;;;;;;7324775;19;20480;-53
2024/03/03 01:18:44;;;;;;;43.53;18.53;;;;;;;;;;7345974;19;20461;-53
2024/03/03 01:21:13;;;;;;;42.80;19.40;;;;;;;;;;7324435;19;20439;-57
2024/03/03 01:23:42;;;;;;;45.70;19.90;;;;;;;;;;7346615;19;20431;-55
2024/03/03 01:26:12;;;;;;;43.43;19.10;;;;;;;;;;7323399;19;20441;-51
2024/03/03 01:28:44;;;;;;;41.80;19.83;;;;;;;;;;7346203;19;20429;-56
2024/03/03 01:31:13;;;;;;;44.17;20.80;;;;;;;;;;7324911;19;20427;-54
2024/03/03 01:33:43;;;;;;;43.27;19.73;;;;;;;;;;7345902;19;20431;-57
2024/03/03 01:36:13;;;;;;;49.67;21.27;;;;;;;;;;7323817;19;20427;-56
2024/03/03 01:38:43;;;;;;;45.57;21.93;;;;;;;;;;7345594;19;20442;-55
2024/03/03 01:41:12;;;;;;;42.67;19.70;;;;;;;;;;7324532;19;20867;-56
2024/03/03 01:43:44;;;;;;;46.27;20.90;;;;;;;;;;7345427;19;20439;-55
2024/03/03 01:46:14;;;;;;;54.90;21.40;;;;;;;;;;7323133;19;20966;-53
2024/03/03 01:48:43;;;;;;;47.20;21.90;;;;;;;;;;7347690;19;20427;-56
2024/03/03 01:51:13;;;;;;;44.27;20.57;;;;;;;;;;7331635;19;20860;-54
2024/03/03 01:53:44;;;;;;;46.90;20.00;;;;;;;;;;7353069;19;20514;-55
2024/03/03 01:56:14;;;;;;;45.60;20.87;;;;;;;;;;7331344;19;20391;-54
2024/03/03 01:58:46;;;;;;;41.70;19.67;;;;;;;;;;7352394;19;20435;-52
2024/03/03 02:01:17;;;;;;;44.57;21.10;;;;;;;;;;7331699;19;20386;-54
2024/03/03 02:03:46;;;;;;;56.10;21.53;;;;;;;;;;7352517;19;20443;-55
2024/03/03 02:06:17;;;;;;;46.17;20.50;;;;;;;;;;7330708;19;20400;-54
2024/03/03 02:08:47;;;;;;;46.07;19.73;;;;;;;;;;7352415;19;20422;-56
2024/03/03 02:11:16;;;;;;;51.47;22.37;;;;;;;;;;7330946;19;20403;-55
2024/03/03 02:13:49;;;;;;;48.07;20.90;;;;;;;;;;7346404;19;20434;-55
2024/03/03 02:16:18;;;;;;;52.97;22.13;;;;;;;;;;7329443;19;20394;-52
2024/03/03 02:18:48;;;;;;;50.27;20.20;;;;;;;;;;7352782;19;20451;-54
2024/03/03 02:21:17;;;;;;;45.67;20.90;;;;;;;;;;7330792;19;20395;-52
2024/03/03 02:23:49;;;;;;;45.67;22.63;;;;;;;;;;7352279;19;20898;-53
2024/03/03 02:26:19;;;;;;;44.13;22.03;;;;;;;;;;7329768;19;20399;-53
2024/03/03 02:28:48;;;;;;;50.60;22.17;;;;;;;;;;7351471;19;20487;-54
2024/03/03 02:31:18;;;;;;;45.53;20.60;;;;;;;;;;7329388;19;20776;-56
2024/03/03 02:33:47;;;;;;;42.90;19.40;;;;;;;;;;7352058;19;20423;-54
2024/03/03 02:36:17;;;;;;;50.53;22.63;;;;;;;;;;7328367;19;20395;-54
2024/03/03 02:38:50;;;;;;;45.80;20.50;;;;;;;;;;7351332;19;20843;-53
2024/03/03 02:41:22;;;;;;;44.00;19.80;;;;;;;;;;7330406;19;20462;-54
2024/03/03 02:43:51;;;;;;;48.20;20.83;;;;;;;;;;7351225;19;20491;-56
2024/03/03 02:46:18;;;;;;;52.67;21.60;;;;;;;;;;7330206;19;20405;-55
2024/03/03 02:48:48;;;;;;;47.33;22.10;;;;;;;;;;7351228;19;20431;-54
2024/03/03 02:51:17;;;;;;;48.83;23.10;;;;;;;;;;7330359;19;20978;-56
2024/03/03 02:53:47;;;;;;;55.83;23.37;;;;;;;;;;7350910;19;20985;-55
2024/03/03 02:56:16;;;;;;;57.07;22.70;;;;;;;;;;7329127;19;21232;-55
2024/03/03 02:58:48;;;;;;;53.97;21.00;;;;;;;;;;7350695;19;20419;-54
2024/03/03 03:01:18;;;;;;;48.33;19.53;;;;;;;;;;7328324;19;20926;-50
2024/03/03 03:03:47;;;;;;;46.70;22.07;;;;;;;;;;7350250;19;20427;-54
2024/03/03 03:06:17;;;;;;;43.40;20.80;;;;;;;;;;7328252;19;20419;-55
2024/03/03 03:08:46;;;;;;;51.87;21.07;;;;;;;;;;7351176;19;20838;-53
2024/03/03 03:11:15;;;;;;;53.50;22.47;;;;;;;;;;7328863;19;20555;-55
2024/03/03 03:13:45;;;;;;;49.47;21.37;;;;;;;;;;7350042;19;20439;-53
2024/03/03 03:16:17;;;;;;;43.00;21.63;;;;;;;;;;7328630;19;21024;-53
2024/03/03 03:18:47;;;;;;;54.97;22.07;;;;;;;;;;7350466;19;20867;-54
2024/03/03 03:21:16;;;;;;;49.63;20.23;;;;;;;;;;7328026;19;20400;-54
2024/03/03 03:23:45;;;;;;;45.97;20.13;;;;;;;;;;7350216;19;20454;-57
2024/03/03 03:26:15;;;;;;;47.93;20.33;;;;;;;;;;7328078;19;20380;-58
2024/03/03 03:28:45;;;;;;;45.90;21.43;;;;;;;;;;7350648;19;20423;-54
2024/03/03 03:31:17;;;;;;;49.90;20.00;;;;;;;;;;7328803;19;20385;-53
2024/03/03 03:33:47;;;;;;;45.07;20.77;;;;;;;;;;7349526;19;20437;-55
2024/03/03 03:36:17;;;;;;;50.27;21.40;;;;;;;;;;7328039;19;20410;-52
2024/03/03 03:38:47;;;;;;;51.30;20.93;;;;;;;;;;7350501;19;21032;-53
2024/03/03 03:41:16;;;;;;;47.57;20.70;;;;;;;;;;7325072;19;20414;-55
2024/03/03 03:43:46;;;;;;;47.03;20.60;;;;;;;;;;7349471;19;20507;-54
2024/03/03 03:46:18;;;;;;;50.37;21.77;;;;;;;;;;7327715;19;20377;-53
2024/03/03 03:48:47;;;;;;;48.53;21.30;;;;;;;;;;7349617;19;20447;-55
2024/03/03 03:51:17;;;;;;;51.67;20.37;;;;;;;;;;7327457;19;20405;-55
2024/03/03 03:53:46;;;;;;;45.60;19.70;;;;;;;;;;7349435;19;20428;-58
2024/03/03 03:56:16;;;;;;;46.97;20.90;;;;;;;;;;7327617;19;20377;-56
2024/03/03 03:58:45;;;;;;;55.60;22.50;;;;;;;;;;7348898;19;20511;-56
2024/03/03 04:01:22;;;;;;;48.13;20.83;;;;;;;;;;7327811;19;20388;-57
2024/03/03 04:03:51;;;;;;;50.40;21.83;;;;;;;;;;7348700;19;20431;-57
2024/03/03 04:06:21;;;;;;;49.63;21.40;;;;;;;;;;7328169;19;20383;-56
2024/03/03 04:08:50;;;;;;;45.57;21.50;;;;;;;;;;7348796;19;20790;-55
2024/03/03 04:11:19;;;;;;;46.43;21.00;;;;;;;;;;7327164;19;20383;-55
2024/03/03 04:13:49;;;;;;;47.60;21.80;;;;;;;;;;7347598;19;20432;-54
2024/03/03 04:16:21;;;;;;;48.70;21.70;;;;;;;;;;7326791;19;20382;-54
2024/03/03 04:18:51;;;;;;;48.33;22.80;;;;;;;;;;7348695;19;20990;-52
2024/03/03 04:21:20;;;;;;;42.13;20.93;;;;;;;;;;7327721;19;20395;-54
2024/03/03 04:23:49;;;;;;;54.13;22.83;;;;;;;;;;7348304;19;20427;-56
2024/03/03 04:26:19;;;;;;;46.50;20.17;;;;;;;;;;7326561;19;20391;-55
2024/03/03 04:28:48;;;;;;;47.80;20.50;;;;;;;;;;7348277;19;20452;-55
2024/03/03 04:31:17;;;;;;;50.13;21.23;;;;;;;;;;7326583;19;20405;-57
2024/03/03 04:33:50;;;;;;;47.13;22.03;;;;;;;;;;7348167;19;20423;-52
2024/03/03 04:36:20;;;;;;;49.70;21.90;;;;;;;;;;7327207;19;20395;-52
2024/03/03 04:38:49;;;;;;;47.07;22.97;;;;;;;;;;7348862;19;20430;-51
2024/03/03 04:41:19;;;;;;;49.70;21.90;;;;;;;;;;7326123;19;20405;-49
2024/03/03 04:43:49;;;;;;;59.73;23.80;;;;;;;;;;7348188;19;20459;-50
2024/03/03 04:46:19;;;;;;;51.97;22.10;;;;;;;;;;7325703;19;20399;-52
2024/03/03 04:48:52;;;;;;;52.20;23.90;;;;;;;;;;7348580;19;20798;-50
2024/03/03 04:51:21;;;;;;;47.77;22.00;;;;;;;;;;7327535;19;20447;-54
2024/03/03 04:53:50;;;;;;;48.43;20.10;;;;;;;;;;7347555;19;20833;-53
2024/03/03 04:56:20;;;;;;;55.80;21.20;;;;;;;;;;7326326;19;20403;-54
2024/03/03 04:58:49;;;;;;;46.43;19.80;;;;;;;;;;7347326;19;20426;-51
2024/03/03 05:01:19;;;;;;;45.17;20.43;;;;;;;;;;7324921;19;20404;-53
2024/03/03 05:03:48;;;;;;;47.47;22.27;;;;;;;;;;7345934;19;20427;-54
2024/03/03 05:06:20;;;;;;;48.10;22.40;;;;;;;;;;7324330;19;20399;-55
2024/03/03 05:08:50;;;;;;;49.20;21.80;;;;;;;;;;7346438;19;20439;-55
2024/03/03 05:11:19;;;;;;;46.93;21.17;;;;;;;;;;7326586;19;20983;-54
2024/03/03 05:13:49;;;;;;;50.00;21.53;;;;;;;;;;7346141;19;20433;-55
2024/03/03 05:16:18;;;;;;;50.77;22.33;;;;;;;;;;7324855;19;20414;-56
2024/03/03 05:18:48;;;;;;;51.47;20.23;;;;;;;;;;7346885;19;21083;-55
2024/03/03 05:21:20;;;;;;;49.67;22.70;;;;;;;;;;7325048;19;20962;-51
2024/03/03 05:23:50;;;;;;;50.30;21.50;;;;;;;;;;7344851;19;20510;-55
2024/03/03 05:26:19;;;;;;;47.47;21.90;;;;;;;;;;7324740;19;20399;-56
2024/03/03 05:28:50;;;;;;;54.73;22.17;;;;;;;;;;7346769;19;20421;-55
2024/03/03 05:31:19;;;;;;;50.57;22.03;;;;;;;;;;7326352;19;20391;-56
2024/03/03 05:33:49;;;;;;;56.40;23.27;;;;;;;;;;7346276;19;20452;-52
2024/03/03 05:36:21;;;;;;;54.20;23.13;;;;;;;;;;7324116;19;20415;-52
2024/03/03 05:38:50;;;;;;;34.00;16.47;;;;;;;;;;7346502;19;20419;-56
2024/03/03 05:41:19;;;;;;;68.57;28.73;;;;;;;;;;7326108;19;20503;-52
2024/03/03 05:43:49;;;;;;;62.87;27.37;;;;;;;;;;7345842;19;20502;-56
2024/03/03 05:46:18;;;;;;;90.83;41.60;;;;;;;;;;7324045;19;20412;-54
2024/03/03 05:48:48;;;;;;;98.93;41.80;;;;;;;;;;7345962;19;20419;-56
2024/03/03 05:51:20;;;;;;;81.20;37.13;;;;;;;;;;7324486;19;20411;-55
2024/03/03 05:53:50;;;;;;;68.83;30.10;;;;;;;;;;7346123;19;20448;-54
2024/03/03 05:56:19;;;;;;;56.27;25.90;;;;;;;;;;7323872;19;20409;-55
2024/03/03 05:58:48;;;;;;;56.10;24.07;;;;;;;;;;7345459;19;20438;-51
2024/03/03 06:01:18;;;;;;;45.13;21.77;;;;;;;;;;7324380;19;20399;-53
2024/03/03 06:03:47;;;;;;;38.87;19.17;;;;;;;;;;7344905;19;20434;-56
2024/03/03 06:06:17;;;;;;;41.20;19.63;;;;;;;;;;7323722;19;20452;-54
2024/03/03 06:08:50;;;;;;;36.90;18.83;;;;;;;;;;7345351;19;20494;-53
2024/03/03 06:11:20;;;;;;;39.90;20.17;;;;;;;;;;7325345;19;20391;-55
2024/03/03 06:13:49;;;;;;;105.93;49.87;;;;;;;;;;7344503;19;20450;-55
2024/03/03 06:16:19;;;;;;;76.40;35.83;;;;;;;;;;7323178;19;20789;-53
2024/03/03 06:18:48;;;;;;;63.53;31.63;;;;;;;;;;7345122;19;20773;-55
2024/03/03 06:21:17;;;;;;;44.07;23.60;;;;;;;;;;7323596;19;20431;-56
2024/03/03 06:23:49;;;;;;;42.87;19.47;;;;;;;;;;7344341;19;20303;-56
2024/03/03 06:26:19;;;;;;;39.33;18.73;;;;;;;;;;7322945;19;20392;-55
2024/03/03 06:28:48;;;;;;;40.10;19.80;;;;;;;;;;7344987;19;20502;-52
2024/03/03 06:31:18;;;;;;;45.33;20.50;;;;;;;;;;7323199;19;20490;-56
2024/03/03 06:33:47;;;;;;;40.97;19.27;;;;;;;;;;7345873;19;20431;-55
2024/03/03 06:36:20;;;;;;;38.73;19.30;;;;;;;;;;7329587;19;20415;-55
2024/03/03 06:38:52;;;;;;;43.20;19.13;;;;;;;;;;7352391;19;20833;-53
2024/03/03 06:41:21;;;;;;;43.90;19.67;;;;;;;;;;7331455;19;20387;-53
2024/03/03 06:43:50;;;;;;;42.03;21.60;;;;;;;;;;7350982;19;20423;-55
2024/03/03 06:46:20;;;;;;;47.00;20.20;;;;;;;;;;7330223;19;20440;-56
2024/03/03 06:48:49;;;;;;;42.03;19.20;;;;;;;;;;7352161;19;20426;-55
2024/03/03 06:51:19;;;;;;;43.97;20.17;;;;;;;;;;7330349;19;20946;-56
2024/03/03 06:53:48;;;;;;;47.23;20.00;;;;;;;;;;7351154;19;20435;-51
2024/03/03 06:56:20;;;;;;;49.40;21.13;;;;;;;;;;7329217;19;21192;-53
2024/03/03 06:58:50;;;;;;;43.47;19.23;;;;;;;;;;7351118;19;21278;-54
2024/03/03 07:01:19;;;;;;;46.43;20.70;;;;;;;;;;7329550;19;21348;-54
2024/03/03 07:06:33;;;;;;;41.63;20.07;;;;;;;;;;7329222;19;20415;-53
2024/03/03 07:09:04;;;;;;;44.57;20.10;;;;;;;;;;7327850;19;20435;-54
2024/03/03 07:11:36;;;;;;;46.93;22.20;;;;;;;;;;7351169;19;20518;-54
2024/03/03 07:14:06;;;;;;;47.63;20.93;;;;;;;;;;7326568;19;20820;-56
2024/03/03 07:16:35;;;;;;;39.93;19.57;;;;;;;;;;7350451;19;21045;-55
2024/03/03 07:19:04;;;;;;;51.03;21.97;;;;;;;;;;7327596;19;20435;-54
2024/03/03 07:21:34;;;;;;;49.33;21.33;;;;;;;;;;7350279;19;20445;-55
2024/03/03 07:24:03;;;;;;;50.20;22.23;;;;;;;;;;7326433;19;20522;-54
2024/03/03 07:26:35;;;;;;;48.20;21.17;;;;;;;;;;7350174;19;20966;-54
2024/03/03 07:29:05;;;;;;;50.67;23.43;;;;;;;;;;7328046;19;20804;-55
2024/03/03 07:31:34;;;;;;;43.40;22.10;;;;;;;;;;7349882;19;20540;-57
2024/03/03 07:34:04;;;;;;;44.80;20.73;;;;;;;;;;7325093;19;20442;-56
2024/03/03 07:36:33;;;;;;;52.60;24.00;;;;;;;;;;7350346;19;20429;-54
2024/03/03 07:39:03;;;;;;;53.63;22.90;;;;;;;;;;7327153;19;20428;-55
2024/03/03 07:41:32;;;;;;;85.57;39.73;;;;;;;;;;7349735;19;20503;-52
2024/03/03 07:44:06;;;;;;;132.00;54.17;;;;;;;;;;7326711;19;20431;-55
2024/03/03 07:46:36;;;;;;;176.43;53.17;;;;;;;;;;7347129;19;20422;-56
2024/03/03 07:49:06;;;;;;;127.03;45.13;;;;;;;;;;7326971;19;21038;-56
2024/03/03 07:51:35;;;;;;;144.97;43.33;;;;;;;;;;7350003;19;20465;-57
2024/03/03 07:54:04;;;;;;;70.33;28.53;;;;;;;;;;7326836;19;20502;-54
2024/03/03 07:56:34;;;;;;;66.70;25.97;;;;;;;;;;7348367;19;20423;-53
2024/03/03 07:59:06;;;;;;;47.13;22.60;;;;;;;;;;7327054;19;20427;-55
2024/03/03 08:01:36;;;;;;;76.20;27.80;;;;;;;;;;7349844;19;20990;-53
2024/03/03 08:04:06;;;;;;;77.27;27.27;;;;;;;;;;7325997;19;20863;-56
2024/03/03 08:06:36;;;;;;;53.30;25.03;;;;;;;;;;7348240;19;20450;-55
2024/03/03 08:09:06;;;;;;;53.73;24.60;;;;;;;;;;7326451;19;20499;-56
2024/03/03 08:11:35;;;;;;;53.00;26.00;;;;;;;;;;7349479;19;20507;-57
2024/03/03 08:14:10;;;;;;;44.93;22.00;;;;;;;;;;7324667;19;20439;-56
2024/03/03 08:16:39;;;;;;;49.80;23.20;;;;;;;;;;7349621;19;20437;-56
2024/03/03 08:19:09;;;;;;;50.77;22.90;;;;;;;;;;7326856;19;20438;-54
2024/03/03 08:21:38;;;;;;;56.87;24.17;;;;;;;;;;7349561;19;20423;-54
2024/03/03 08:24:08;;;;;;;60.90;26.47;;;;;;;;;;7325453;19;20475;-55
2024/03/03 08:26:37;;;;;;;60.43;25.43;;;;;;;;;;7348596;19;20427;-58
2024/03/03 08:29:09;;;;;;;58.80;27.47;;;;;;;;;;7325094;19;20419;-56
2024/03/03 08:31:42;;;;;;;61.10;27.90;;;;;;;;;;7348761;19;20419;-56
2024/03/03 08:34:11;;;;;;;60.67;27.43;;;;;;;;;;7313618;19;20412;-56
2024/03/03 08:36:42;;;;;;;59.13;27.23;;;;;;;;;;7339313;19;20885;-58
2024/03/03 08:39:13;;;;;;;62.53;28.97;;;;;;;;;;7319674;19;20426;-56
2024/03/03 08:41:43;;;;;;;124.53;48.30;;;;;;;;;;7340947;19;20464;-56
2024/03/03 08:44:15;;;;;;;78.80;34.27;;;;;;;;;;7317632;19;20506;-56
2024/03/03 08:46:45;;;;;;;72.70;29.87;;;;;;;;;;7340373;19;20427;-54
2024/03/03 08:49:14;;;;;;;71.60;29.60;;;;;;;;;;7318410;19;21039;-55
2024/03/03 08:51:44;;;;;;;68.90;30.50;;;;;;;;;;7339385;19;20434;-54
2024/03/03 08:54:14;;;;;;;70.00;31.93;;;;;;;;;;7325018;19;21137;-54
2024/03/03 08:56:44;;;;;;;71.63;31.47;;;;;;;;;;7347012;19;20503;-52
2024/03/03 08:59:16;;;;;;;80.57;31.40;;;;;;;;;;7324712;19;20412;-49
2024/03/03 09:01:45;;;;;;;74.73;33.63;;;;;;;;;;7347054;19;20428;-52
2024/03/03 09:04:15;;;;;;;65.90;29.37;;;;;;;;;;7311947;19;20419;-51
2024/03/03 09:06:44;;;;;;;65.20;31.00;;;;;;;;;;7339033;19;20462;-55
2024/03/03 09:09:16;;;;;;;57.33;27.50;;;;;;;;;;7318045;19;21427;-55
2024/03/03 09:11:47;;;;;;;59.97;29.07;;;;;;;;;;7338871;19;20423;-54
2024/03/03 09:14:19;;;;;;;70.40;29.50;;;;;;;;;;7316065;19;20388;-57
2024/03/03 09:16:48;;;;;;;55.90;27.63;;;;;;;;;;7339498;19;20430;-56
2024/03/03 09:19:17;;;;;;;57.40;27.70;;;;;;;;;;7339001;19;20411;-54
2024/03/03 09:21:47;;;;;;;56.10;26.20;;;;;;;;;;7317305;19;21006;-55
2024/03/03 09:24:18;;;;;;;57.43;27.53;;;;;;;;;;7337301;19;20430;-53
2024/03/03 09:26:47;;;;;;;58.30;26.23;;;;;;;;;;7316024;19;20542;-55
2024/03/03 09:29:19;;;;;;;59.73;26.40;;;;;;;;;;7337753;19;20431;-52
2024/03/03 09:31:54;;;;;;;56.33;26.17;;;;;;;;;;7336553;19;20421;-54
2024/03/03 09:34:24;;;;;;;57.10;27.37;;;;;;;;;;7315927;19;20433;-51
2024/03/03 09:36:54;;;;;;;56.83;27.40;;;;;;;;;;7339358;19;20974;-50
2024/03/03 09:39:23;;;;;;;54.83;25.63;;;;;;;;;;7316586;19;20427;-55
2024/03/03 09:41:57;;;;;;;53.70;24.50;;;;;;;;;;7337712;19;20502;-55
2024/03/03 09:44:32;;;;;;;46.93;24.83;;;;;;;;;;7314152;19;20513;-55
2024/03/03 09:47:03;;;;;;;51.03;25.33;;;;;;;;;;7338371;19;20434;-53
2024/03/03 09:49:35;;;;;;;53.43;23.83;;;;;;;;;;7314942;19;20468;-55
2024/03/03 09:52:04;;;;;;;57.30;26.40;;;;;;;;;;7337289;19;20427;-54
2024/03/03 09:54:34;;;;;;;49.83;24.87;;;;;;;;;;7315622;19;20427;-53
2024/03/03 09:57:05;;;;;;;57.57;27.40;;;;;;;;;;7338636;19;20423;-53
2024/03/03 09:59:38;;;;;;;44.47;23.53;;;;;;;;;;7315346;19;20547;-54
2024/03/03 10:02:11;;;;;;;52.43;23.80;;;;;;;;;;7337495;19;21365;-54
2024/03/03 10:04:41;;;;;;;52.70;24.33;;;;;;;;;;7314580;19;20459;-54
2024/03/03 10:07:11;;;;;;;46.20;23.47;;;;;;;;;;7337553;19;20787;-54
2024/03/03 10:09:38;;;;;;;39.27;20.87;;;;;;;;;;7320699;19;20450;-55
2024/03/03 10:12:10;;;;;;;41.90;21.50;;;;;;;;;;7343771;19;20454;-56
2024/03/03 10:14:42;;;;;;;44.70;21.60;;;;;;;;;;7321532;19;20404;-54
2024/03/03 10:17:11;;;;;;;46.17;21.70;;;;;;;;;;7344510;19;20555;-51
2024/03/03 10:19:41;;;;;;;43.90;23.00;;;;;;;;;;7322609;19;20784;-51
2024/03/03 10:22:12;;;;;;;56.07;27.97;;;;;;;;;;7342089;19;20456;-53
2024/03/03 10:24:41;;;;;;;44.20;21.30;;;;;;;;;;7320431;19;20433;-55
2024/03/03 10:27:16;;;;;;;48.63;22.37;;;;;;;;;;7345035;19;20425;-53
2024/03/03 10:29:48;;;;;;;40.30;22.40;;;;;;;;;;7322027;19;20416;-55
2024/03/03 10:32:17;;;;;;;36.20;19.43;;;;;;;;;;7325681;19;20468;-54
2024/03/03 10:34:57;;;;;;;38.77;18.50;;;;;;;;;;7342419;19;20507;-55
2024/03/03 10:37:27;;;;;;;38.97;19.53;;;;;;;;;;7320530;19;20434;-55
2024/03/03 10:39:57;;;;;;;32.70;18.50;;;;;;;;;;7342672;19;20516;-53
2024/03/03 10:42:26;;;;;;;37.80;20.10;;;;;;;;;;7320382;19;20458;-55
2024/03/03 10:44:58;;;;;;;42.83;20.60;;;;;;;;;;7340938;19;20552;-56
2024/03/03 10:47:28;;;;;;;36.53;19.97;;;;;;;;;;7321517;19;20470;-53
2024/03/03 10:49:57;;;;;;;38.77;20.23;;;;;;;;;;7343569;19;21093;-53
2024/03/03 10:52:27;;;;;;;36.37;19.63;;;;;;;;;;7319856;19;20463;-53
2024/03/03 10:54:57;;;;;;;36.90;19.50;;;;;;;;;;7342213;19;20427;-56
2024/03/03 10:57:27;;;;;;;35.93;19.77;;;;;;;;;;7320113;19;20528;-56
2024/03/03 11:00:00;;;;;;;34.63;19.33;;;;;;;;;;7339189;19;20973;-57
2024/03/03 11:02:31;;;;;;;34.13;18.07;;;;;;;;;;7319026;19;20449;-55
2024/03/03 11:05:02;;;;;;;34.90;18.37;;;;;;;;;;7341414;19;20427;-54
2024/03/03 11:07:36;;;;;;;36.43;19.13;;;;;;;;;;7320058;19;20434;-54
2024/03/03 11:10:06;;;;;;;34.30;18.57;;;;;;;;;;7341668;19;20517;-55
2024/03/03 11:12:38;;;;;;;36.27;19.97;;;;;;;;;;7319534;19;20451;-56
2024/03/03 11:15:14;;;;;;;33.90;17.60;;;;;;;;;;7342374;19;20411;-52
2024/03/03 11:17:46;;;;;;;53.90;23.60;;;;;;;;;;7322313;19;20961;-54
2024/03/03 11:20:20;;;;;;;34.00;17.80;;;;;;;;;;7340915;19;20427;-55
2024/03/03 11:22:53;;;;;;;28.00;15.67;;;;;;;;;;7322652;19;20423;-52
2024/03/03 11:25:23;;;;;;;27.93;15.13;;;;;;;;;;7318194;19;20423;-56
2024/03/03 11:28:01;;;;;;;50.60;16.40;;;;;;;;;;7343615;19;20419;-56
2024/03/03 11:30:33;;;;;;;27.30;14.67;;;;;;;;;;7318692;19;20446;-52
2024/03/03 11:33:03;;;;;;;25.10;14.10;;;;;;;;;;7342069;19;20509;-54
2024/03/03 11:35:33;;;;;;;25.70;14.40;;;;;;;;;;7320288;19;20423;-53
2024/03/03 11:38:04;;;;;;;22.87;12.37;;;;;;;;;;7341532;19;20419;-53
2024/03/03 11:40:33;;;;;;;24.77;12.53;;;;;;;;;;7320238;19;20431;-49
2024/03/03 11:43:03;;;;;;;26.77;13.27;;;;;;;;;;7341870;19;20451;-53
2024/03/03 11:45:50;;;;;;;24.83;13.80;;;;;;;;;;7319646;19;20472;-53
2024/03/03 11:48:20;;;;;;;32.50;17.60;;;;;;;;;;7319967;19;20431;-52
2024/03/03 11:50:49;;;;;;;24.93;15.20;;;;;;;;;;7343658;19;20814;-54
2024/03/03 11:53:23;;;;;;;26.20;14.20;;;;;;;;;;7326241;19;20423;-51
2024/03/03 11:55:53;;;;;;;25.17;14.20;;;;;;;;;;7340784;19;21002;-55
2024/03/03 11:58:26;;;;;;;38.60;19.50;;;;;;;;;;7318793;19;20433;-54
2024/03/03 12:01:12;;;;;;;31.53;18.40;;;;;;;;;;7341677;19;20458;-55
2024/03/03 12:03:44;;;;;;;35.93;19.70;;;;;;;;;;7319236;19;20435;-55
2024/03/03 12:06:17;;;;;;;28.83;17.37;;;;;;;;;;7341250;19;20447;-55
2024/03/03 12:08:50;;;;;;;37.40;20.13;;;;;;;;;;7320341;19;20490;-55
2024/03/03 12:11:23;;;;;;;40.03;19.70;;;;;;;;;;7319511;19;20587;-53
2024/03/03 12:14:14;;;;;;;31.40;17.47;;;;;;;;;;7341231;19;20454;-54
2024/03/03 12:16:54;;;;;;;37.80;19.37;;;;;;;;;;7320966;19;20403;-54
2024/03/03 12:19:26;;;;;;;40.07;22.50;;;;;;;;;;7318395;19;20427;-55
2024/03/03 12:21:55;;;;;;;34.50;18.93;;;;;;;;;;7341431;19;20435;-56
2024/03/03 12:24:25;;;;;;;37.60;18.87;;;;;;;;;;7318579;19;20419;-50
2024/03/03 12:26:54;;;;;;;31.60;18.83;;;;;;;;;;7340240;19;20444;-52
2024/03/03 12:29:23;;;;;;;34.57;19.80;;;;;;;;;;7314796;19;20875;-52
2024/03/03 12:31:55;;;;;;;38.13;19.07;;;;;;;;;;7339514;19;20425;-50
2024/03/03 12:34:29;;;;;;;34.10;19.17;;;;;;;;;;7317791;19;20415;-54
2024/03/03 12:36:59;;;;;;;34.60;17.93;;;;;;;;;;7341405;19;20423;-55
2024/03/03 12:39:28;;;;;;;35.30;19.47;;;;;;;;;;7318363;19;20790;-52
2024/03/03 12:41:58;;;;;;;34.20;20.47;;;;;;;;;;7340405;19;20431;-50
2024/03/03 12:44:27;;;;;;;29.40;18.30;;;;;;;;;;7316683;19;20435;-54
2024/03/03 12:46:56;;;;;;;31.03;19.70;;;;;;;;;;7339741;19;20433;-51
2024/03/03 12:49:26;;;;;;;31.30;19.30;;;;;;;;;;7318196;19;20423;-55
2024/03/03 12:51:58;;;;;;;28.87;19.13;;;;;;;;;;7339591;19;20489;-57
2024/03/03 12:54:28;;;;;;;30.43;18.60;;;;;;;;;;7317673;19;20459;-52
2024/03/03 12:56:57;;;;;;;28.70;18.70;;;;;;;;;;7340432;19;20426;-56
2024/03/03 12:59:26;;;;;;;31.83;19.43;;;;;;;;;;7316837;19;20431;-57
2024/03/03 13:01:56;;;;;;;30.60;18.60;;;;;;;;;;7339241;19;20850;-55
2024/03/03 13:04:25;;;;;;;30.53;19.73;;;;;;;;;;7362183;19;20415;-57
2024/03/03 13:06:55;;;;;;;31.00;21.30;;;;;;;;;;7318380;19;20405;-55
2024/03/03 13:09:30;;;;;;;32.80;21.37;;;;;;;;;;7338980;19;20434;-54
2024/03/03 13:11:59;;;;;;;31.70;19.30;;;;;;;;;;7338949;19;20509;-51
2024/03/03 13:14:32;;;;;;;30.03;19.63;;;;;;;;;;7362114;19;20435;-50
2024/03/03 13:17:08;;;;;;;34.10;23.17;;;;;;;;;;7385750;19;20415;-51
2024/03/03 13:19:43;;;;;;;33.97;22.30;;;;;;;;;;7316387;19;21196;-56
2024/03/03 13:22:13;;;;;;;32.03;20.23;;;;;;;;;;7338863;19;20458;-53
2024/03/03 13:24:55;;;;;;;35.73;21.70;;;;;;;;;;7315529;19;20449;-51
2024/03/03 13:27:29;;;;;;;31.90;22.00;;;;;;;;;;7338059;19;20822;-55
2024/03/03 13:30:04;;;;;;;31.53;20.60;;;;;;;;;;7318165;19;20440;-54
2024/03/03 13:32:33;;;;;;;33.80;21.80;;;;;;;;;;7315221;19;20846;-52
2024/03/03 13:35:03;;;;;;;32.57;21.50;;;;;;;;;;7337647;19;20795;-53
2024/03/03 13:37:32;;;;;;;35.30;22.50;;;;;;;;;;7316009;19;20426;-55
2024/03/03 13:40:05;;;;;;;34.37;21.70;;;;;;;;;;7338191;19;20954;-53
2024/03/03 13:42:34;;;;;;;34.67;21.87;;;;;;;;;;7314330;19;20499;-54
2024/03/03 13:45:04;;;;;;;32.63;21.50;;;;;;;;;;7336566;19;20452;-56
2024/03/03 13:47:36;;;;;;;31.27;20.80;;;;;;;;;;7313704;19;20423;-55
2024/03/03 13:50:08;;;;;;;36.80;21.17;;;;;;;;;;7338384;19;20427;-53
2024/03/03 13:52:38;;;;;;;32.23;20.30;;;;;;;;;;7315763;19;20542;-53
2024/03/03 13:55:10;;;;;;;40.00;24.20;;;;;;;;;;7336739;19;20974;-53
2024/03/03 13:57:40;;;;;;;37.00;22.20;;;;;;;;;;7316835;19;20440;-54
2024/03/03 14:00:14;;;;;;;36.20;22.00;;;;;;;;;;7337835;19;20491;-53
2024/03/03 14:02:44;;;;;;;32.27;19.70;;;;;;;;;;7315497;19;20529;-53
2024/03/03 14:05:14;;;;;;;27.40;17.43;;;;;;;;;;7337502;19;20423;-54
2024/03/03 14:07:44;;;;;;;32.27;18.83;;;;;;;;;;7316635;19;20438;-51
2024/03/03 14:10:18;;;;;;;27.60;17.50;;;;;;;;;;7338595;19;20427;-54
2024/03/03 14:12:48;;;;;;;28.53;18.53;;;;;;;;;;7316600;19;23636;-53
2024/03/03 14:15:18;;;;;;;26.00;16.60;;;;;;;;;;7338595;19;20444;-54
2024/03/03 14:17:47;;;;;;;31.50;18.53;;;;;;;;;;7313790;19;20385;-53
2024/03/03 14:20:17;;;;;;;33.50;19.00;;;;;;;;;;7337384;19;20469;-53
2024/03/03 14:22:49;;;;;;;37.70;19.70;;;;;;;;;;7314799;19;20917;-52
2024/03/03 14:25:23;;;;;;;33.40;19.47;;;;;;;;;;7337028;19;20427;-53
2024/03/03 14:27:53;;;;;;;34.63;19.17;;;;;;;;;;7314862;19;20435;-54
2024/03/03 14:30:40;;;;;;;40.77;20.57;;;;;;;;;;7314945;19;20448;-55
2024/03/03 14:33:09;;;;;;;39.23;21.27;;;;;;;;;;7336420;19;20459;-53
2024/03/03 14:35:39;;;;;;;43.03;23.97;;;;;;;;;;7315096;19;20927;-54
2024/03/03 14:38:10;;;;;;;42.70;24.27;;;;;;;;;;7337928;19;20415;-55